Universal Bremen — LXEM — position and weather

sailwx.info

Track history (hours):
 
Tides and Currents Weather Stations Pressure Air Temp Water Temp Dewpoint Dewpoint Depression Visibility Wind Speed Wind Dir Waves Ship Positions

Universal Bremen

Last reported at 2016-May-01 19:05 UTC. Time now 2016-May-05 01:04 UTC.
Position N 22°05' E 113°49'.

Length 189 m; draft 6.7 m.

Type: Cargo ship. MMSI: 253466000.

Date/timePositionNaut miles runAvg speedWind from/ knotsBaromVisibWave heightAir tempDewpointWater temp
2016-May-01 19:05N 22°05' E 113°49'5 9.4
2016-May-01 18:33N 22°10' E 113°47'3212.9
2016-May-01 16:03N 22°42' E 113°41'611.4
2016-May-01 15:31N 22°47' E 113°38'1010.7
2016-May-01 14:33N 22°56' E 113°33'3 2.8
2016-May-01 13:21N 22°60' E 113°32'0 0.0
2016-May-01 12:33N 22°60' E 113°32'0 0.0
2016-May-01 11:33N 22°60' E 113°32'0 0.0
2016-May-01 10:33N 22°60' E 113°32'0 0.0
2016-May-01 09:33N 22°60' E 113°32'0 0.0
2016-May-01 08:27N 22°60' E 113°32'0 0.0
2016-May-01 07:27N 22°60' E 113°32'0 0.0
2016-May-01 06:27N 22°60' E 113°32'0 0.0
2016-May-01 04:27N 22°60' E 113°32'0 0.0
2016-May-01 00:15N 22°60' E 113°32'0 0.0
2016-Apr-30 23:27N 22°60' E 113°32'0 0.0
2016-Apr-30 21:21N 22°60' E 113°32'0 0.0
2016-Apr-30 20:15N 22°60' E 113°32'0 0.0
2016-Apr-30 19:33N 22°60' E 113°32'0 0.0
2016-Apr-30 18:15N 22°60' E 113°32'0 0.0
2016-Apr-30 17:21N 22°60' E 113°32'0 0.0
2016-Apr-30 16:27N 22°60' E 113°32'0 0.0
2016-Apr-30 14:27N 22°60' E 113°32'0 0.0
2016-Apr-30 13:33N 22°60' E 113°32'0 0.0
2016-Apr-30 11:33N 22°60' E 113°32'0 0.0
2016-Apr-30 09:27N 22°60' E 113°32'0 0.0
2016-Apr-30 08:21N 22°60' E 113°32'0 0.0
2016-Apr-30 06:27N 22°60' E 113°32'0 0.0
2016-Apr-30 02:33N 22°60' E 113°32'0 0.0
2016-Apr-30 01:26N 22°60' E 113°32'0 0.0
2016-Apr-30 00:33N 22°60' E 113°32'0 0.0
2016-Apr-29 23:33N 22°60' E 113°32'0 0.0
2016-Apr-29 21:14N 22°60' E 113°32'0 0.0
2016-Apr-29 20:14N 22°60' E 113°32'0 0.0
2016-Apr-29 19:14N 22°60' E 113°32'0 0.0
2016-Apr-29 17:20N 22°60' E 113°32'0 0.0
2016-Apr-29 16:14N 22°60' E 113°32'0 0.0
2016-Apr-29 15:26N 22°60' E 113°32'0 0.0
2016-Apr-29 14:32N 22°60' E 113°32'0 0.0
2016-Apr-29 11:26N 22°60' E 113°32'0 0.0
2016-Apr-29 10:20N 22°60' E 113°32'0 0.2
2016-Apr-29 09:33N 22°59' E 113°32'6 6.2
2016-Apr-29 08:33N 22°54' E 113°34'5 5.2
2016-Apr-29 07:32N 22°49' E 113°36'3411.5
2016-Apr-29 04:33N 22°16' E 113°49'  
Track history (hours):
 
Tides and Currents Weather Stations Pressure Air Temp Water Temp Dewpoint Dewpoint Depression Visibility Wind Speed Wind Dir Waves Ship Positions

Universal Bremen

Last reported at 2016-May-01 19:05 UTC. Time now 2016-May-05 01:04 UTC.
Position N 22°05' E 113°49'.

Length 189 m; draft 6.7 m.

Type: Cargo ship. MMSI: 253466000.

Date/timePositionNaut miles runAvg speedWind from/ knotsBaromVisibWave heightAir tempDewpointWater temp
2016-May-01 19:05N 22°05' E 113°49'5 9.4
2016-May-01 18:33N 22°10' E 113°47'3212.9
2016-May-01 16:03N 22°42' E 113°41'611.4
2016-May-01 15:31N 22°47' E 113°38'1010.7
2016-May-01 14:33N 22°56' E 113°33'3 2.8
2016-May-01 13:21N 22°60' E 113°32'0 0.0
2016-May-01 12:33N 22°60' E 113°32'0 0.0
2016-May-01 11:33N 22°60' E 113°32'0 0.0
2016-May-01 10:33N 22°60' E 113°32'0 0.0
2016-May-01 09:33N 22°60' E 113°32'0 0.0
2016-May-01 08:27N 22°60' E 113°32'0 0.0
2016-May-01 07:27N 22°60' E 113°32'0 0.0
2016-May-01 06:27N 22°60' E 113°32'0 0.0
2016-May-01 04:27N 22°60' E 113°32'0 0.0
2016-May-01 00:15N 22°60' E 113°32'0 0.0
2016-Apr-30 23:27N 22°60' E 113°32'0 0.0
2016-Apr-30 21:21N 22°60' E 113°32'0 0.0
2016-Apr-30 20:15N 22°60' E 113°32'0 0.0
2016-Apr-30 19:33N 22°60' E 113°32'0 0.0
2016-Apr-30 18:15N 22°60' E 113°32'0 0.0
2016-Apr-30 17:21N 22°60' E 113°32'0 0.0
2016-Apr-30 16:27N 22°60' E 113°32'0 0.0
2016-Apr-30 14:27N 22°60' E 113°32'0 0.0
2016-Apr-30 13:33N 22°60' E 113°32'0 0.0
2016-Apr-30 11:33N 22°60' E 113°32'0 0.0
2016-Apr-30 09:27N 22°60' E 113°32'0 0.0
2016-Apr-30 08:21N 22°60' E 113°32'0 0.0
2016-Apr-30 06:27N 22°60' E 113°32'0 0.0
2016-Apr-30 02:33N 22°60' E 113°32'0 0.0
2016-Apr-30 01:26N 22°60' E 113°32'0 0.0
2016-Apr-30 00:33N 22°60' E 113°32'0 0.0
2016-Apr-29 23:33N 22°60' E 113°32'0 0.0
2016-Apr-29 21:14N 22°60' E 113°32'0 0.0
2016-Apr-29 20:14N 22°60' E 113°32'0 0.0
2016-Apr-29 19:14N 22°60' E 113°32'0 0.0
2016-Apr-29 17:20N 22°60' E 113°32'0 0.0
2016-Apr-29 16:14N 22°60' E 113°32'0 0.0
2016-Apr-29 15:26N 22°60' E 113°32'0 0.0
2016-Apr-29 14:32N 22°60' E 113°32'0 0.0
2016-Apr-29 11:26N 22°60' E 113°32'0 0.0
2016-Apr-29 10:20N 22°60' E 113°32'0 0.2
2016-Apr-29 09:33N 22°59' E 113°32'6 6.2
2016-Apr-29 08:33N 22°54' E 113°34'5 5.2
2016-Apr-29 07:32N 22°49' E 113°36'3411.5
2016-Apr-29 04:33N 22°16' E 113°49'  

Dump ship's entire track history